Florence, SC

5:03 AM EDT on July 24, 2014 (GMT -0400)
The Abbeys (KSCFLORE12) Elev 138 ft | 34.15 °N, 79.78 °W | Change Station

Current weather conditions updated 13 minutes ago

Clear
Clear
75.0 °F
Feels Like 72 °F
N
0.0
Wind Variable Wind from West

Today is forecast to be Cooler than yesterday. Showers and thunderstorms late.

Today
High -- | Low -- °F
--% Chance of Precip.
Yesterday
High -- | Low -- °F
Precip. -- in
6:24 AM 8:26 PM
Waning Crescent, 6% visible
Pressure 29.92 in
Visibility 10.0 miles
Clouds Clear
Heat Index 72 °F
Dew Point 75 °F
Humidity 99%
Rainfall 0.00 in
Snow Depth Not available.
UV 0 out of 12
Pollen 2.80 out of 12
Air Quality Not available.
Flu Activity Not available.
METAR KFLO 240853Z AUTO 22003KT 10SM CLR 24/23 A2993 RMK AO2 SLP130 T02440233 56010

More Conditions Fewer Conditions

Pressure 29.92 in
Visibility 10.0 miles
Clouds Clear
Heat Index 72 °F
Dew Point 75 °F
Humidity 99%
Rainfall 0.00 in
Snow Depth Not available.
UV 0 out of 12
Pollen 2.80 out of 12
Air Quality Not available.
Flu Activity Not available.
METAR KFLO 240853Z AUTO 22003KT 10SM CLR 24/23 A2993 RMK AO2 SLP130 T02440233 56010

More Conditions Fewer Conditions

10-Day Weather Forecast

Almanac

Astronomy

Jul. 24, 2014 Rise Set
Actual Time 6:24 AM EDT 8:26 PM EDT
Civil Twilight 5:56 AM EDT 8:54 PM EDT
Nautical Twilight 5:22 AM EDT 9:28 PM EDT
Astronomical Twilight 4:45 AM EDT 10:04 PM EDT
Moon 4:30 AM EDT 6:41 PM EDT
Length of Visible Light 14h 57m
Length of Day
14h 01m
Tomorrow will be 1m 23s shorter.
Waning Crescent, 6% of the Moon is Illuminated
Today
Waning Crescent
Jul 26
New
Aug 3
First Quarter
Aug 10
Full
Aug 17
Last Quarter

Today's Extremes

State Highs State Lows

Community

WunderPhotos

Upload Photos

1,736,950 photos uploaded!

Nearby

Air Quality

  Air Quality AQ Index Pollutant
Yesterday Good
PM2.5
Yesterday Good
OZONE
Thursday Good
OZONE

Snow Depth

Station Depth Elevation
No new snow has been reported.

Earthquake Activity

City Distance Mag. Time & Date
No recent earthquake activity has been reported nearby.
Minimum magnitude displayed is 2.5.

Coastal Water Temperatures

Place Temperature
No Stations Reporting

Nearby Weather Stations

Station Location Temp. Heat Index Dew Point Humidity Wind Precip. Elev Updated Type
The Abbeys, Florence, SC 75.0 °F 72 °F 75 °F 99% West  at  0.0 mph - / hr 138 ft 4:50 AM EDT Normal
Savannah Grove, Effingham, SC 75.2 °F 74 °F 74 °F 95% SW  at  0.0 mph - / hr 138 ft 4:52 AM EDT Normal
Cambridge Apartments, Florence, SC 77.7 °F 80 °F 73 °F 88% North  at  - - / hr 141 ft 4:50 AM EDT Normal
South Darlington, Darlington, SC 69.9 °F - 64 °F 81% North  at  - - / hr 149 ft 4:54 AM EDT Normal
Mechanicsville, Darlington, SC 75.9 °F 75 °F 75 °F 96% SE  at  2.0 mph 0.00 in / hr 144 ft 5:03 AM EDT Rapid Fire
Upper Black Creek Run, Hartsville, SC 75.2 °F 73 °F 75 °F 98% ESE  at  2.7 mph - / hr 257 ft 5:03 AM EDT Normal

Show More Stations Show Fewer Stations